sensor_id;sensor_type;location;lat;lon;timestamp;P1;durP1;ratioP1;P2;durP2;ratioP2
21038;SDS011;10678;51.002;4.786;2023-07-30T00:01:57;8.57;;;2.20;;
21038;SDS011;10678;51.002;4.786;2023-07-30T00:04:22;7.35;;;2.05;;
21038;SDS011;10678;51.002;4.786;2023-07-30T00:06:48;14.35;;;2.47;;
21038;SDS011;10678;51.002;4.786;2023-07-30T00:09:14;9.80;;;2.00;;
21038;SDS011;10678;51.002;4.786;2023-07-30T00:11:39;8.35;;;2.47;;
21038;SDS011;10678;51.002;4.786;2023-07-30T00:14:05;6.93;;;2.17;;
21038;SDS011;10678;51.002;4.786;2023-07-30T00:16:31;8.77;;;2.22;;
21038;SDS011;10678;51.002;4.786;2023-07-30T00:18:57;11.23;;;2.40;;
21038;SDS011;10678;51.002;4.786;2023-07-30T00:21:22;10.55;;;2.30;;
21038;SDS011;10678;51.002;4.786;2023-07-30T00:23:48;9.45;;;2.35;;
21038;SDS011;10678;51.002;4.786;2023-07-30T00:26:14;6.90;;;2.20;;
21038;SDS011;10678;51.002;4.786;2023-07-30T00:28:39;9.35;;;2.15;;
21038;SDS011;10678;51.002;4.786;2023-07-30T00:31:05;12.57;;;2.60;;
21038;SDS011;10678;51.002;4.786;2023-07-30T00:33:31;8.23;;;2.10;;
21038;SDS011;10678;51.002;4.786;2023-07-30T00:35:56;8.20;;;2.13;;
21038;SDS011;10678;51.002;4.786;2023-07-30T00:38:22;10.82;;;2.35;;
21038;SDS011;10678;51.002;4.786;2023-07-30T00:40:48;7.03;;;2.50;;
21038;SDS011;10678;51.002;4.786;2023-07-30T00:43:14;7.90;;;2.25;;
21038;SDS011;10678;51.002;4.786;2023-07-30T00:45:40;11.40;;;2.28;;
21038;SDS011;10678;51.002;4.786;2023-07-30T00:48:07;12.55;;;2.83;;
21038;SDS011;10678;51.002;4.786;2023-07-30T00:50:34;12.52;;;2.95;;
21038;SDS011;10678;51.002;4.786;2023-07-30T00:53:00;10.50;;;2.53;;
21038;SDS011;10678;51.002;4.786;2023-07-30T00:55:26;5.45;;;1.90;;
21038;SDS011;10678;51.002;4.786;2023-07-30T00:57:51;11.18;;;2.10;;
21038;SDS011;10678;51.002;4.786;2023-07-30T01:00:17;11.30;;;2.13;;
21038;SDS011;10678;51.002;4.786;2023-07-30T01:02:43;11.25;;;2.63;;
21038;SDS011;10678;51.002;4.786;2023-07-30T01:05:09;10.75;;;3.28;;
21038;SDS011;10678;51.002;4.786;2023-07-30T01:07:35;15.02;;;3.00;;
21038;SDS011;10678;51.002;4.786;2023-07-30T01:10:01;11.57;;;2.75;;
21038;SDS011;10678;51.002;4.786;2023-07-30T01:12:28;11.98;;;2.63;;
21038;SDS011;10678;51.002;4.786;2023-07-30T01:14:56;14.02;;;2.72;;
21038;SDS011;10678;51.002;4.786;2023-07-30T01:17:23;9.30;;;2.40;;
21038;SDS011;10678;51.002;4.786;2023-07-30T01:19:49;17.58;;;4.05;;
21038;SDS011;10678;51.002;4.786;2023-07-30T01:22:15;7.55;;;2.20;;
21038;SDS011;10678;51.002;4.786;2023-07-30T01:24:41;10.45;;;2.35;;
21038;SDS011;10678;51.002;4.786;2023-07-30T01:27:07;8.50;;;2.72;;
21038;SDS011;10678;51.002;4.786;2023-07-30T01:29:45;7.90;;;2.33;;
21038;SDS011;10678;51.002;4.786;2023-07-30T01:32:16;11.35;;;2.83;;
21038;SDS011;10678;51.002;4.786;2023-07-30T01:34:44;12.45;;;3.28;;
21038;SDS011;10678;51.002;4.786;2023-07-30T01:37:12;12.00;;;2.72;;
21038;SDS011;10678;51.002;4.786;2023-07-30T01:39:40;9.80;;;2.42;;
21038;SDS011;10678;51.002;4.786;2023-07-30T01:42:07;14.60;;;3.10;;
21038;SDS011;10678;51.002;4.786;2023-07-30T01:44:33;11.85;;;2.45;;
21038;SDS011;10678;51.002;4.786;2023-07-30T01:46:58;13.40;;;2.78;;
21038;SDS011;10678;51.002;4.786;2023-07-30T01:49:24;15.70;;;3.22;;
21038;SDS011;10678;51.002;4.786;2023-07-30T01:51:49;10.38;;;2.20;;
21038;SDS011;10678;51.002;4.786;2023-07-30T01:54:15;10.02;;;2.72;;
21038;SDS011;10678;51.002;4.786;2023-07-30T01:56:40;18.40;;;3.55;;
21038;SDS011;10678;51.002;4.786;2023-07-30T01:59:06;13.27;;;2.50;;
21038;SDS011;10678;51.002;4.786;2023-07-30T02:01:32;11.45;;;2.35;;
21038;SDS011;10678;51.002;4.786;2023-07-30T02:03:57;6.90;;;2.13;;
21038;SDS011;10678;51.002;4.786;2023-07-30T02:06:23;13.18;;;2.38;;
21038;SDS011;10678;51.002;4.786;2023-07-30T02:08:49;11.23;;;2.35;;
21038;SDS011;10678;51.002;4.786;2023-07-30T02:11:14;11.73;;;2.80;;
21038;SDS011;10678;51.002;4.786;2023-07-30T02:13:40;12.13;;;2.58;;
21038;SDS011;10678;51.002;4.786;2023-07-30T02:16:06;13.70;;;3.08;;
21038;SDS011;10678;51.002;4.786;2023-07-30T02:18:31;12.63;;;2.58;;
21038;SDS011;10678;51.002;4.786;2023-07-30T02:20:57;13.50;;;2.28;;
21038;SDS011;10678;51.002;4.786;2023-07-30T02:23:22;8.43;;;2.10;;
21038;SDS011;10678;51.002;4.786;2023-07-30T02:25:48;16.65;;;2.75;;
21038;SDS011;10678;51.002;4.786;2023-07-30T02:28:14;16.75;;;2.97;;
21038;SDS011;10678;51.002;4.786;2023-07-30T02:30:39;11.75;;;2.88;;
21038;SDS011;10678;51.002;4.786;2023-07-30T02:33:05;13.20;;;2.17;;
21038;SDS011;10678;51.002;4.786;2023-07-30T02:35:30;19.73;;;2.95;;
21038;SDS011;10678;51.002;4.786;2023-07-30T02:37:56;10.55;;;2.20;;
21038;SDS011;10678;51.002;4.786;2023-07-30T02:40:22;9.55;;;2.65;;
21038;SDS011;10678;51.002;4.786;2023-07-30T02:42:47;13.02;;;2.35;;
21038;SDS011;10678;51.002;4.786;2023-07-30T02:45:13;11.27;;;2.10;;
21038;SDS011;10678;51.002;4.786;2023-07-30T02:47:38;17.90;;;2.72;;
21038;SDS011;10678;51.002;4.786;2023-07-30T02:50:04;14.05;;;2.30;;
21038;SDS011;10678;51.002;4.786;2023-07-30T02:52:31;17.65;;;2.40;;
21038;SDS011;10678;51.002;4.786;2023-07-30T02:54:57;13.40;;;2.20;;
21038;SDS011;10678;51.002;4.786;2023-07-30T02:57:22;18.05;;;2.95;;
21038;SDS011;10678;51.002;4.786;2023-07-30T02:59:48;10.23;;;2.10;;
21038;SDS011;10678;51.002;4.786;2023-07-30T03:02:14;16.92;;;2.47;;
21038;SDS011;10678;51.002;4.786;2023-07-30T03:04:39;9.13;;;2.13;;
21038;SDS011;10678;51.002;4.786;2023-07-30T03:07:05;12.45;;;2.40;;
21038;SDS011;10678;51.002;4.786;2023-07-30T03:09:31;10.20;;;2.40;;
21038;SDS011;10678;51.002;4.786;2023-07-30T03:11:57;15.10;;;1.95;;
21038;SDS011;10678;51.002;4.786;2023-07-30T03:14:24;11.80;;;2.78;;
21038;SDS011;10678;51.002;4.786;2023-07-30T03:16:49;10.60;;;2.63;;
21038;SDS011;10678;51.002;4.786;2023-07-30T03:19:15;7.60;;;2.03;;
21038;SDS011;10678;51.002;4.786;2023-07-30T03:21:41;14.40;;;2.72;;
21038;SDS011;10678;51.002;4.786;2023-07-30T03:24:06;14.13;;;2.05;;
21038;SDS011;10678;51.002;4.786;2023-07-30T03:26:32;13.25;;;3.03;;
21038;SDS011;10678;51.002;4.786;2023-07-30T03:28:58;20.45;;;2.40;;
21038;SDS011;10678;51.002;4.786;2023-07-30T03:31:24;19.17;;;3.13;;
21038;SDS011;10678;51.002;4.786;2023-07-30T03:33:49;15.50;;;2.83;;
21038;SDS011;10678;51.002;4.786;2023-07-30T03:36:15;15.23;;;2.65;;
21038;SDS011;10678;51.002;4.786;2023-07-30T03:38:41;18.52;;;2.75;;
21038;SDS011;10678;51.002;4.786;2023-07-30T03:41:07;9.85;;;2.20;;
21038;SDS011;10678;51.002;4.786;2023-07-30T03:43:33;16.40;;;2.58;;
21038;SDS011;10678;51.002;4.786;2023-07-30T03:45:59;12.80;;;2.65;;
21038;SDS011;10678;51.002;4.786;2023-07-30T03:48:25;10.43;;;2.30;;
21038;SDS011;10678;51.002;4.786;2023-07-30T03:50:52;14.32;;;2.85;;
21038;SDS011;10678;51.002;4.786;2023-07-30T03:53:20;12.75;;;2.08;;
21038;SDS011;10678;51.002;4.786;2023-07-30T03:55:46;14.88;;;2.25;;
21038;SDS011;10678;51.002;4.786;2023-07-30T03:58:12;12.02;;;2.28;;
21038;SDS011;10678;51.002;4.786;2023-07-30T04:00:38;12.02;;;2.25;;
21038;SDS011;10678;51.002;4.786;2023-07-30T04:03:04;13.32;;;2.45;;
21038;SDS011;10678;51.002;4.786;2023-07-30T04:05:30;12.02;;;2.08;;
21038;SDS011;10678;51.002;4.786;2023-07-30T04:07:56;17.15;;;2.67;;
21038;SDS011;10678;51.002;4.786;2023-07-30T04:10:21;15.25;;;2.53;;
21038;SDS011;10678;51.002;4.786;2023-07-30T04:12:47;16.00;;;2.40;;
21038;SDS011;10678;51.002;4.786;2023-07-30T04:15:14;18.73;;;2.25;;
21038;SDS011;10678;51.002;4.786;2023-07-30T04:17:40;9.75;;;2.00;;
21038;SDS011;10678;51.002;4.786;2023-07-30T04:20:05;15.73;;;2.92;;
21038;SDS011;10678;51.002;4.786;2023-07-30T04:22:31;14.27;;;2.33;;
21038;SDS011;10678;51.002;4.786;2023-07-30T04:24:57;17.90;;;2.70;;
21038;SDS011;10678;51.002;4.786;2023-07-30T04:27:23;14.93;;;2.17;;
21038;SDS011;10678;51.002;4.786;2023-07-30T04:29:48;17.65;;;2.80;;
21038;SDS011;10678;51.002;4.786;2023-07-30T04:32:14;8.23;;;1.80;;
21038;SDS011;10678;51.002;4.786;2023-07-30T04:34:39;15.82;;;2.75;;
21038;SDS011;10678;51.002;4.786;2023-07-30T04:37:05;12.32;;;2.20;;
21038;SDS011;10678;51.002;4.786;2023-07-30T04:39:32;19.58;;;2.72;;
21038;SDS011;10678;51.002;4.786;2023-07-30T04:41:58;17.73;;;2.67;;
21038;SDS011;10678;51.002;4.786;2023-07-30T04:44:24;18.17;;;2.67;;
21038;SDS011;10678;51.002;4.786;2023-07-30T04:46:49;15.27;;;2.83;;
21038;SDS011;10678;51.002;4.786;2023-07-30T04:49:15;12.98;;;2.65;;
21038;SDS011;10678;51.002;4.786;2023-07-30T04:51:40;15.95;;;2.50;;
21038;SDS011;10678;51.002;4.786;2023-07-30T04:54:06;14.75;;;2.33;;
21038;SDS011;10678;51.002;4.786;2023-07-30T04:56:32;15.25;;;2.50;;
21038;SDS011;10678;51.002;4.786;2023-07-30T04:58:57;18.98;;;2.53;;
21038;SDS011;10678;51.002;4.786;2023-07-30T05:01:26;16.20;;;2.67;;
21038;SDS011;10678;51.002;4.786;2023-07-30T05:03:52;12.52;;;1.95;;
21038;SDS011;10678;51.002;4.786;2023-07-30T05:06:17;18.80;;;2.95;;
21038;SDS011;10678;51.002;4.786;2023-07-30T05:08:43;22.33;;;3.53;;
21038;SDS011;10678;51.002;4.786;2023-07-30T05:11:09;14.25;;;2.47;;
21038;SDS011;10678;51.002;4.786;2023-07-30T05:13:34;14.30;;;2.28;;
21038;SDS011;10678;51.002;4.786;2023-07-30T05:16:00;24.13;;;3.70;;
21038;SDS011;10678;51.002;4.786;2023-07-30T05:18:26;11.77;;;2.35;;
21038;SDS011;10678;51.002;4.786;2023-07-30T05:20:52;22.40;;;2.80;;
21038;SDS011;10678;51.002;4.786;2023-07-30T05:23:18;19.33;;;2.70;;
21038;SDS011;10678;51.002;4.786;2023-07-30T05:25:45;19.38;;;2.70;;
21038;SDS011;10678;51.002;4.786;2023-07-30T05:28:11;16.25;;;2.75;;
21038;SDS011;10678;51.002;4.786;2023-07-30T05:30:37;19.02;;;2.85;;
21038;SDS011;10678;51.002;4.786;2023-07-30T05:33:02;16.23;;;2.75;;
21038;SDS011;10678;51.002;4.786;2023-07-30T05:35:28;15.10;;;3.03;;
21038;SDS011;10678;51.002;4.786;2023-07-30T05:37:54;21.13;;;2.90;;
21038;SDS011;10678;51.002;4.786;2023-07-30T05:40:20;15.70;;;3.20;;
21038;SDS011;10678;51.002;4.786;2023-07-30T05:42:46;19.02;;;3.25;;
21038;SDS011;10678;51.002;4.786;2023-07-30T05:45:12;15.95;;;2.58;;
21038;SDS011;10678;51.002;4.786;2023-07-30T05:47:37;12.02;;;2.67;;
21038;SDS011;10678;51.002;4.786;2023-07-30T05:50:03;21.40;;;3.40;;
21038;SDS011;10678;51.002;4.786;2023-07-30T05:52:29;15.50;;;2.97;;
21038;SDS011;10678;51.002;4.786;2023-07-30T05:54:55;19.40;;;3.22;;
21038;SDS011;10678;51.002;4.786;2023-07-30T05:57:20;21.13;;;3.08;;
21038;SDS011;10678;51.002;4.786;2023-07-30T05:59:46;15.00;;;3.00;;
21038;SDS011;10678;51.002;4.786;2023-07-30T06:02:12;15.52;;;2.80;;
21038;SDS011;10678;51.002;4.786;2023-07-30T06:04:37;13.63;;;2.75;;
21038;SDS011;10678;51.002;4.786;2023-07-30T06:07:03;16.70;;;2.67;;
21038;SDS011;10678;51.002;4.786;2023-07-30T06:09:29;19.27;;;2.85;;
21038;SDS011;10678;51.002;4.786;2023-07-30T06:11:55;19.10;;;3.20;;
21038;SDS011;10678;51.002;4.786;2023-07-30T06:14:22;19.38;;;3.13;;
21038;SDS011;10678;51.002;4.786;2023-07-30T06:16:47;18.88;;;3.67;;
21038;SDS011;10678;51.002;4.786;2023-07-30T06:19:13;16.15;;;2.75;;
21038;SDS011;10678;51.002;4.786;2023-07-30T06:21:38;16.98;;;2.55;;
21038;SDS011;10678;51.002;4.786;2023-07-30T06:24:04;14.70;;;3.53;;
21038;SDS011;10678;51.002;4.786;2023-07-30T06:26:29;20.88;;;3.45;;
21038;SDS011;10678;51.002;4.786;2023-07-30T06:28:55;16.92;;;2.80;;
21038;SDS011;10678;51.002;4.786;2023-07-30T06:31:21;17.00;;;2.80;;
21038;SDS011;10678;51.002;4.786;2023-07-30T06:33:47;21.65;;;3.42;;
21038;SDS011;10678;51.002;4.786;2023-07-30T06:36:13;17.67;;;2.75;;
21038;SDS011;10678;51.002;4.786;2023-07-30T06:38:38;18.92;;;2.72;;
21038;SDS011;10678;51.002;4.786;2023-07-30T06:41:04;20.17;;;3.30;;
21038;SDS011;10678;51.002;4.786;2023-07-30T06:43:30;13.68;;;2.95;;
21038;SDS011;10678;51.002;4.786;2023-07-30T06:45:55;16.90;;;2.85;;
21038;SDS011;10678;51.002;4.786;2023-07-30T06:48:21;18.17;;;3.25;;
21038;SDS011;10678;51.002;4.786;2023-07-30T06:50:47;22.23;;;3.38;;
21038;SDS011;10678;51.002;4.786;2023-07-30T06:53:12;20.17;;;3.22;;
21038;SDS011;10678;51.002;4.786;2023-07-30T06:55:38;16.92;;;3.15;;
21038;SDS011;10678;51.002;4.786;2023-07-30T06:58:03;17.00;;;2.97;;
21038;SDS011;10678;51.002;4.786;2023-07-30T07:00:29;20.70;;;3.33;;
21038;SDS011;10678;51.002;4.786;2023-07-30T07:02:54;17.48;;;3.10;;
21038;SDS011;10678;51.002;4.786;2023-07-30T07:05:20;18.45;;;4.15;;
21038;SDS011;10678;51.002;4.786;2023-07-30T07:07:46;21.60;;;3.05;;
21038;SDS011;10678;51.002;4.786;2023-07-30T07:10:12;17.25;;;2.75;;
21038;SDS011;10678;51.002;4.786;2023-07-30T07:12:38;24.08;;;3.42;;
21038;SDS011;10678;51.002;4.786;2023-07-30T07:15:04;27.92;;;3.42;;
21038;SDS011;10678;51.002;4.786;2023-07-30T07:17:30;16.08;;;2.83;;
21038;SDS011;10678;51.002;4.786;2023-07-30T07:19:57;19.83;;;3.17;;
21038;SDS011;10678;51.002;4.786;2023-07-30T07:22:23;23.50;;;4.20;;
21038;SDS011;10678;51.002;4.786;2023-07-30T07:24:49;19.95;;;2.45;;
21038;SDS011;10678;51.002;4.786;2023-07-30T07:27:17;17.50;;;2.78;;
21038;SDS011;10678;51.002;4.786;2023-07-30T07:29:43;16.65;;;2.55;;
21038;SDS011;10678;51.002;4.786;2023-07-30T07:32:08;23.60;;;4.45;;
21038;SDS011;10678;51.002;4.786;2023-07-30T07:34:34;13.95;;;3.00;;
21038;SDS011;10678;51.002;4.786;2023-07-30T07:37:00;16.50;;;3.08;;
21038;SDS011;10678;51.002;4.786;2023-07-30T07:39:26;16.38;;;2.53;;
21038;SDS011;10678;51.002;4.786;2023-07-30T07:41:52;17.23;;;2.80;;
21038;SDS011;10678;51.002;4.786;2023-07-30T07:44:17;17.45;;;2.85;;
21038;SDS011;10678;51.002;4.786;2023-07-30T07:46:43;20.15;;;4.05;;
21038;SDS011;10678;51.002;4.786;2023-07-30T07:49:08;11.15;;;2.25;;
21038;SDS011;10678;51.002;4.786;2023-07-30T07:51:34;17.65;;;2.78;;
21038;SDS011;10678;51.002;4.786;2023-07-30T07:54:00;15.55;;;2.65;;
21038;SDS011;10678;51.002;4.786;2023-07-30T07:56:25;15.82;;;3.10;;
21038;SDS011;10678;51.002;4.786;2023-07-30T07:58:51;14.45;;;2.22;;
21038;SDS011;10678;51.002;4.786;2023-07-30T08:01:16;18.33;;;3.33;;
21038;SDS011;10678;51.002;4.786;2023-07-30T08:03:42;20.88;;;3.13;;
21038;SDS011;10678;51.002;4.786;2023-07-30T08:06:07;11.25;;;2.42;;
21038;SDS011;10678;51.002;4.786;2023-07-30T08:08:33;17.23;;;2.95;;
21038;SDS011;10678;51.002;4.786;2023-07-30T08:11:04;15.85;;;2.50;;
21038;SDS011;10678;51.002;4.786;2023-07-30T08:13:31;14.45;;;2.92;;
21038;SDS011;10678;51.002;4.786;2023-07-30T08:15:56;11.20;;;2.25;;
21038;SDS011;10678;51.002;4.786;2023-07-30T08:18:22;12.57;;;2.25;;
21038;SDS011;10678;51.002;4.786;2023-07-30T08:20:49;10.63;;;2.25;;
21038;SDS011;10678;51.002;4.786;2023-07-30T08:23:14;14.18;;;2.50;;
21038;SDS011;10678;51.002;4.786;2023-07-30T08:25:40;15.52;;;2.58;;
21038;SDS011;10678;51.002;4.786;2023-07-30T08:28:06;12.27;;;1.90;;
21038;SDS011;10678;51.002;4.786;2023-07-30T08:30:31;10.13;;;2.13;;
21038;SDS011;10678;51.002;4.786;2023-07-30T08:32:57;11.07;;;1.77;;
21038;SDS011;10678;51.002;4.786;2023-07-30T08:35:22;12.48;;;1.98;;
21038;SDS011;10678;51.002;4.786;2023-07-30T08:37:48;7.80;;;1.83;;
21038;SDS011;10678;51.002;4.786;2023-07-30T08:40:14;14.13;;;2.45;;
21038;SDS011;10678;51.002;4.786;2023-07-30T08:42:39;13.48;;;2.83;;
21038;SDS011;10678;51.002;4.786;2023-07-30T08:45:05;10.02;;;2.17;;
21038;SDS011;10678;51.002;4.786;2023-07-30T08:47:33;16.83;;;3.00;;
21038;SDS011;10678;51.002;4.786;2023-07-30T08:50:00;12.52;;;2.58;;
21038;SDS011;10678;51.002;4.786;2023-07-30T08:52:25;13.13;;;2.03;;
21038;SDS011;10678;51.002;4.786;2023-07-30T08:54:53;13.68;;;2.20;;
21038;SDS011;10678;51.002;4.786;2023-07-30T08:57:21;10.93;;;2.00;;
21038;SDS011;10678;51.002;4.786;2023-07-30T08:59:50;13.38;;;2.78;;
21038;SDS011;10678;51.002;4.786;2023-07-30T09:03:05;13.75;;;2.25;;
21038;SDS011;10678;51.002;4.786;2023-07-30T09:05:10;10.48;;;2.40;;
21038;SDS011;10678;51.002;4.786;2023-07-30T09:07:36;14.35;;;2.13;;
21038;SDS011;10678;51.002;4.786;2023-07-30T09:10:01;9.95;;;1.65;;
21038;SDS011;10678;51.002;4.786;2023-07-30T09:12:34;10.45;;;1.55;;
21038;SDS011;10678;51.002;4.786;2023-07-30T09:15:01;9.20;;;2.05;;
21038;SDS011;10678;51.002;4.786;2023-07-30T09:17:29;12.15;;;1.92;;
21038;SDS011;10678;51.002;4.786;2023-07-30T09:19:55;12.75;;;2.40;;
21038;SDS011;10678;51.002;4.786;2023-07-30T09:22:27;9.95;;;1.67;;
21038;SDS011;10678;51.002;4.786;2023-07-30T09:24:53;8.55;;;1.38;;
21038;SDS011;10678;51.002;4.786;2023-07-30T09:27:20;8.75;;;1.20;;
21038;SDS011;10678;51.002;4.786;2023-07-30T09:29:53;6.60;;;0.80;;
21038;SDS011;10678;51.002;4.786;2023-07-30T09:32:27;5.05;;;1.05;;
21038;SDS011;10678;51.002;4.786;2023-07-30T09:34:54;5.40;;;0.80;;
21038;SDS011;10678;51.002;4.786;2023-07-30T09:37:20;6.57;;;0.90;;
21038;SDS011;10678;51.002;4.786;2023-07-30T09:39:47;14.35;;;1.42;;
21038;SDS011;10678;51.002;4.786;2023-07-30T09:42:13;3.78;;;0.80;;
21038;SDS011;10678;51.002;4.786;2023-07-30T09:44:39;3.65;;;0.98;;
21038;SDS011;10678;51.002;4.786;2023-07-30T09:47:08;7.38;;;1.42;;
21038;SDS011;10678;51.002;4.786;2023-07-30T09:49:37;6.28;;;1.13;;
21038;SDS011;10678;51.002;4.786;2023-07-30T09:52:04;6.63;;;1.10;;
21038;SDS011;10678;51.002;4.786;2023-07-30T09:54:30;8.23;;;1.48;;
21038;SDS011;10678;51.002;4.786;2023-07-30T09:56:57;10.90;;;2.00;;
21038;SDS011;10678;51.002;4.786;2023-07-30T09:59:23;9.13;;;1.50;;
21038;SDS011;10678;51.002;4.786;2023-07-30T10:01:49;7.63;;;1.45;;
21038;SDS011;10678;51.002;4.786;2023-07-30T10:04:20;12.25;;;1.65;;
21038;SDS011;10678;51.002;4.786;2023-07-30T10:06:51;10.25;;;1.70;;
21038;SDS011;10678;51.002;4.786;2023-07-30T10:09:30;10.23;;;1.83;;
21038;SDS011;10678;51.002;4.786;2023-07-30T10:11:58;9.02;;;1.83;;
21038;SDS011;10678;51.002;4.786;2023-07-30T10:14:26;8.82;;;1.95;;
21038;SDS011;10678;51.002;4.786;2023-07-30T10:16:53;8.77;;;1.60;;
21038;SDS011;10678;51.002;4.786;2023-07-30T10:19:25;9.10;;;1.63;;
21038;SDS011;10678;51.002;4.786;2023-07-30T10:21:53;12.32;;;1.50;;
21038;SDS011;10678;51.002;4.786;2023-07-30T10:24:23;8.15;;;1.95;;
21038;SDS011;10678;51.002;4.786;2023-07-30T10:26:51;7.45;;;1.33;;
21038;SDS011;10678;51.002;4.786;2023-07-30T10:29:19;8.60;;;1.65;;
21038;SDS011;10678;51.002;4.786;2023-07-30T10:31:50;7.93;;;1.55;;
21038;SDS011;10678;51.002;4.786;2023-07-30T10:34:19;12.18;;;2.38;;
21038;SDS011;10678;51.002;4.786;2023-07-30T10:36:46;7.13;;;1.67;;
21038;SDS011;10678;51.002;4.786;2023-07-30T10:39:15;8.48;;;1.58;;
21038;SDS011;10678;51.002;4.786;2023-07-30T10:41:45;10.75;;;1.80;;
21038;SDS011;10678;51.002;4.786;2023-07-30T10:46:54;10.75;;;1.95;;
21038;SDS011;10678;51.002;4.786;2023-07-30T10:49:21;9.05;;;1.65;;
21038;SDS011;10678;51.002;4.786;2023-07-30T10:51:46;11.05;;;1.60;;
21038;SDS011;10678;51.002;4.786;2023-07-30T10:54:12;10.93;;;2.25;;
21038;SDS011;10678;51.002;4.786;2023-07-30T10:56:38;8.35;;;1.48;;
21038;SDS011;10678;51.002;4.786;2023-07-30T10:59:05;8.27;;;1.40;;
21038;SDS011;10678;51.002;4.786;2023-07-30T11:01:35;14.55;;;2.33;;
21038;SDS011;10678;51.002;4.786;2023-07-30T11:04:20;10.60;;;2.00;;
21038;SDS011;10678;51.002;4.786;2023-07-30T11:06:46;11.90;;;2.08;;
21038;SDS011;10678;51.002;4.786;2023-07-30T11:09:20;8.70;;;1.52;;
21038;SDS011;10678;51.002;4.786;2023-07-30T11:11:47;8.55;;;1.55;;
21038;SDS011;10678;51.002;4.786;2023-07-30T11:14:17;11.60;;;1.40;;
21038;SDS011;10678;51.002;4.786;2023-07-30T11:16:57;11.65;;;1.67;;
21038;SDS011;10678;51.002;4.786;2023-07-30T11:19:24;7.85;;;1.92;;
21038;SDS011;10678;51.002;4.786;2023-07-30T11:21:51;9.25;;;1.50;;
21038;SDS011;10678;51.002;4.786;2023-07-30T11:24:18;10.38;;;1.40;;
21038;SDS011;10678;51.002;4.786;2023-07-30T11:26:44;7.07;;;1.42;;
21038;SDS011;10678;51.002;4.786;2023-07-30T11:29:19;7.80;;;1.90;;
21038;SDS011;10678;51.002;4.786;2023-07-30T11:31:46;10.50;;;1.63;;
21038;SDS011;10678;51.002;4.786;2023-07-30T11:34:15;9.30;;;1.60;;
21038;SDS011;10678;51.002;4.786;2023-07-30T11:36:43;8.40;;;1.30;;
21038;SDS011;10678;51.002;4.786;2023-07-30T11:39:09;10.98;;;2.00;;
21038;SDS011;10678;51.002;4.786;2023-07-30T11:41:35;10.85;;;1.38;;
21038;SDS011;10678;51.002;4.786;2023-07-30T11:44:02;8.20;;;1.50;;
21038;SDS011;10678;51.002;4.786;2023-07-30T11:46:29;6.50;;;1.40;;
21038;SDS011;10678;51.002;4.786;2023-07-30T11:49:10;8.73;;;1.63;;
21038;SDS011;10678;51.002;4.786;2023-07-30T11:51:37;10.38;;;1.60;;
21038;SDS011;10678;51.002;4.786;2023-07-30T11:54:03;7.88;;;1.73;;
21038;SDS011;10678;51.002;4.786;2023-07-30T11:56:29;8.45;;;1.25;;
21038;SDS011;10678;51.002;4.786;2023-07-30T11:58:57;8.68;;;1.80;;
21038;SDS011;10678;51.002;4.786;2023-07-30T12:01:25;5.47;;;1.10;;
21038;SDS011;10678;51.002;4.786;2023-07-30T12:03:55;10.13;;;2.00;;
21038;SDS011;10678;51.002;4.786;2023-07-30T12:06:40;10.05;;;2.03;;
21038;SDS011;10678;51.002;4.786;2023-07-30T12:09:14;8.50;;;1.63;;
21038;SDS011;10678;51.002;4.786;2023-07-30T12:11:45;9.25;;;2.08;;
21038;SDS011;10678;51.002;4.786;2023-07-30T12:14:19;7.32;;;1.40;;
21038;SDS011;10678;51.002;4.786;2023-07-30T12:16:50;11.73;;;1.77;;
21038;SDS011;10678;51.002;4.786;2023-07-30T12:19:16;10.55;;;1.70;;
21038;SDS011;10678;51.002;4.786;2023-07-30T12:21:41;9.57;;;1.58;;
21038;SDS011;10678;51.002;4.786;2023-07-30T12:24:07;6.50;;;1.25;;
21038;SDS011;10678;51.002;4.786;2023-07-30T12:26:33;9.80;;;1.23;;
21038;SDS011;10678;51.002;4.786;2023-07-30T12:28:58;6.93;;;1.10;;
21038;SDS011;10678;51.002;4.786;2023-07-30T12:31:24;7.55;;;1.42;;
21038;SDS011;10678;51.002;4.786;2023-07-30T12:33:50;8.80;;;1.38;;
21038;SDS011;10678;51.002;4.786;2023-07-30T12:36:15;5.30;;;1.05;;
21038;SDS011;10678;51.002;4.786;2023-07-30T12:38:41;7.70;;;1.63;;
21038;SDS011;10678;51.002;4.786;2023-07-30T12:41:07;3.63;;;0.90;;
21038;SDS011;10678;51.002;4.786;2023-07-30T12:43:32;7.18;;;1.27;;
21038;SDS011;10678;51.002;4.786;2023-07-30T12:45:58;7.65;;;1.10;;
21038;SDS011;10678;51.002;4.786;2023-07-30T12:48:23;6.35;;;0.80;;
21038;SDS011;10678;51.002;4.786;2023-07-30T12:50:49;6.22;;;1.20;;
21038;SDS011;10678;51.002;4.786;2023-07-30T12:53:15;8.85;;;1.17;;
21038;SDS011;10678;51.002;4.786;2023-07-30T12:55:40;7.47;;;1.25;;
21038;SDS011;10678;51.002;4.786;2023-07-30T12:58:06;8.73;;;1.40;;
21038;SDS011;10678;51.002;4.786;2023-07-30T13:00:33;5.35;;;1.20;;
21038;SDS011;10678;51.002;4.786;2023-07-30T13:02:59;9.85;;;1.08;;
21038;SDS011;10678;51.002;4.786;2023-07-30T13:05:24;7.05;;;1.30;;
21038;SDS011;10678;51.002;4.786;2023-07-30T13:07:50;5.90;;;1.60;;
21038;SDS011;10678;51.002;4.786;2023-07-30T13:10:16;7.60;;;1.55;;
21038;SDS011;10678;51.002;4.786;2023-07-30T13:12:42;5.28;;;1.20;;
21038;SDS011;10678;51.002;4.786;2023-07-30T13:15:07;6.80;;;1.60;;
21038;SDS011;10678;51.002;4.786;2023-07-30T13:17:33;6.50;;;1.30;;
21038;SDS011;10678;51.002;4.786;2023-07-30T13:19:59;5.97;;;1.10;;
21038;SDS011;10678;51.002;4.786;2023-07-30T13:22:25;8.02;;;1.60;;
21038;SDS011;10678;51.002;4.786;2023-07-30T13:24:51;5.53;;;1.30;;
21038;SDS011;10678;51.002;4.786;2023-07-30T13:27:17;7.95;;;1.80;;
21038;SDS011;10678;51.002;4.786;2023-07-30T13:29:43;6.60;;;1.30;;
21038;SDS011;10678;51.002;4.786;2023-07-30T13:32:09;5.75;;;1.15;;
21038;SDS011;10678;51.002;4.786;2023-07-30T13:34:35;4.97;;;1.25;;
21038;SDS011;10678;51.002;4.786;2023-07-30T13:37:00;3.88;;;1.00;;
21038;SDS011;10678;51.002;4.786;2023-07-30T13:39:26;8.32;;;1.92;;
21038;SDS011;10678;51.002;4.786;2023-07-30T13:41:52;8.48;;;1.15;;
21038;SDS011;10678;51.002;4.786;2023-07-30T13:44:18;6.13;;;1.00;;
21038;SDS011;10678;51.002;4.786;2023-07-30T13:46:44;6.00;;;1.40;;
21038;SDS011;10678;51.002;4.786;2023-07-30T13:49:10;7.82;;;1.30;;
21038;SDS011;10678;51.002;4.786;2023-07-30T13:51:35;7.95;;;1.20;;
21038;SDS011;10678;51.002;4.786;2023-07-30T13:54:01;4.60;;;1.00;;
21038;SDS011;10678;51.002;4.786;2023-07-30T13:56:27;7.90;;;1.05;;
21038;SDS011;10678;51.002;4.786;2023-07-30T13:58:53;4.53;;;1.02;;
21038;SDS011;10678;51.002;4.786;2023-07-30T14:01:19;4.95;;;1.23;;
21038;SDS011;10678;51.002;4.786;2023-07-30T14:03:45;7.43;;;1.08;;
21038;SDS011;10678;51.002;4.786;2023-07-30T14:06:10;8.73;;;1.75;;
21038;SDS011;10678;51.002;4.786;2023-07-30T14:08:36;7.00;;;1.50;;
21038;SDS011;10678;51.002;4.786;2023-07-30T14:11:02;8.13;;;1.40;;
21038;SDS011;10678;51.002;4.786;2023-07-30T14:13:27;5.00;;;1.25;;
21038;SDS011;10678;51.002;4.786;2023-07-30T14:15:53;7.75;;;1.70;;
21038;SDS011;10678;51.002;4.786;2023-07-30T14:18:19;6.63;;;1.38;;
21038;SDS011;10678;51.002;4.786;2023-07-30T14:20:45;7.47;;;1.02;;
21038;SDS011;10678;51.002;4.786;2023-07-30T14:23:10;7.93;;;1.67;;
21038;SDS011;10678;51.002;4.786;2023-07-30T14:25:36;10.57;;;1.50;;
21038;SDS011;10678;51.002;4.786;2023-07-30T14:28:02;8.90;;;1.90;;
21038;SDS011;10678;51.002;4.786;2023-07-30T14:30:29;9.95;;;1.35;;
21038;SDS011;10678;51.002;4.786;2023-07-30T14:32:55;11.95;;;1.88;;
21038;SDS011;10678;51.002;4.786;2023-07-30T14:35:21;6.35;;;1.45;;
21038;SDS011;10678;51.002;4.786;2023-07-30T14:37:46;8.32;;;1.40;;